Time;durP1;ratioP1;P1;durP2;ratioP2;P2;SDS_P1;SDS_P2;PMS_P1;PMS_P2;Temp;Humidity;BMP_temperature;BMP_pressure;BME280_temperature;BME280_humidity;BME280_pressure;Samples;Min_cycle;Max_cycle;Signal;HPM_P1;HPM_P2
2022/09/27 00:00:03;;;;;;;1.92;0.50;;;;;;;12.24;77.44;97737.56;344861;28;1229;-84
2022/09/27 00:00:15;;;;;;;0.65;0.50;;;;;;;12.28;77.88;97739.00;343701;28;1107;-82
2022/09/27 00:00:27;;;;;;;1.60;0.50;;;;;;;12.27;77.70;97737.34;343292;28;1723;-83
2022/09/27 00:00:41;;;;;;;1.95;0.50;;;;;;;12.25;77.72;97739.22;343720;28;1207;-85
2022/09/27 00:01:00;;;;;;;1.00;0.50;;;;;;;12.29;78.00;97740.66;341794;28;1677;-83
2022/09/27 00:01:14;;;;;;;1.70;0.50;;;;;;;12.14;78.00;97737.38;343613;28;1083;-83
2022/09/27 00:01:27;;;;;;;2.40;0.50;;;;;;;12.13;77.85;97734.88;343917;28;1221;-82
2022/09/27 00:01:39;;;;;;;1.27;0.40;;;;;;;12.12;78.14;97735.81;343519;28;805;-83
2022/09/27 00:01:52;;;;;;;0.45;0.40;;;;;;;12.16;77.67;97734.66;342760;28;1724;-82
2022/09/27 00:02:04;;;;;;;0.60;0.50;;;;;;;12.20;78.20;97736.13;344040;28;1711;-83
2022/09/27 00:02:16;;;;;;;0.65;0.50;;;;;;;12.23;78.27;97735.88;345292;28;1125;-83
2022/09/27 00:02:28;;;;;;;0.80;0.57;;;;;;;12.18;77.68;97732.78;344491;28;1844;-83
2022/09/27 00:02:40;;;;;;;0.98;0.60;;;;;;;12.17;77.60;97731.97;344799;28;1271;-83
2022/09/27 00:02:52;;;;;;;0.85;0.60;;;;;;;12.18;77.85;97733.63;343876;28;1669;-84
2022/09/27 00:03:04;;;;;;;0.90;0.50;;;;;;;12.19;77.50;97731.84;344792;28;1321;-83
2022/09/27 00:03:17;;;;;;;0.80;0.50;;;;;;;12.18;77.19;97736.22;345147;28;1139;-83
2022/09/27 00:03:29;;;;;;;0.47;0.43;;;;;;;12.24;77.66;97736.75;346211;28;1246;-84
2022/09/27 00:03:41;;;;;;;0.52;0.43;;;;;;;12.28;77.33;97723.38;346229;28;1179;-82
2022/09/27 00:03:54;;;;;;;0.60;0.43;;;;;;;12.17;78.02;97733.72;345298;28;1664;-83
2022/09/27 00:04:06;;;;;;;0.50;0.50;;;;;;;12.18;77.88;97732.78;344792;28;1726;-83
2022/09/27 00:04:18;;;;;;;0.50;0.50;;;;;;;12.22;77.79;97729.03;344791;28;1207;-83
2022/09/27 00:04:30;;;;;;;0.50;0.50;;;;;;;12.23;77.65;97735.06;345383;28;744;-83
2022/09/27 00:04:42;;;;;;;0.40;0.40;;;;;;;12.23;77.58;97728.06;344713;28;1191;-84
2022/09/27 00:04:54;;;;;;;0.43;0.43;;;;;;;12.26;77.45;97733.09;344323;28;1480;-82
2022/09/27 00:05:07;;;;;;;0.40;0.40;;;;;;;12.24;77.61;97742.78;343320;28;1386;-83
2022/09/27 00:05:19;;;;;;;0.88;0.40;;;;;;;12.25;77.87;97734.00;343273;28;1236;-82
2022/09/27 00:05:31;;;;;;;1.00;0.40;;;;;;;12.28;78.08;97727.78;343652;28;1758;-84
2022/09/27 00:05:43;;;;;;;1.10;0.40;;;;;;;12.29;78.04;97727.63;343907;28;1642;-84
2022/09/27 00:06:16;;;;;;;0.70;0.40;;;;;;;12.26;78.36;97740.91;343660;28;1204;-83
2022/09/27 00:06:30;;;;;;;0.77;0.50;;;;;;;12.19;78.00;97735.28;345205;28;1064;-83
2022/09/27 00:06:42;;;;;;;0.45;0.43;;;;;;;12.22;78.13;97734.25;345125;28;1155;-84
2022/09/27 00:06:54;;;;;;;0.75;0.47;;;;;;;12.27;77.84;97737.34;346655;28;843;-86
2022/09/27 00:07:06;;;;;;;0.98;0.40;;;;;;;12.24;77.64;97737.56;345919;28;1043;-82
2022/09/27 00:07:18;;;;;;;0.90;0.45;;;;;;;12.26;77.76;97735.69;344817;28;1136;-82
2022/09/27 00:07:30;;;;;;;1.02;0.45;;;;;;;12.29;77.92;97727.63;344820;28;1154;-83
2022/09/27 00:07:44;;;;;;;1.17;0.45;;;;;;;12.27;77.91;97737.34;345353;28;938;-82
2022/09/27 00:07:56;;;;;;;1.30;0.50;;;;;;;12.26;78.09;97735.69;344080;28;1675;-84
2022/09/27 00:08:08;;;;;;;0.98;0.50;;;;;;;12.28;78.09;97739.00;343070;28;1802;-83
2022/09/27 00:08:20;;;;;;;0.93;0.50;;;;;;;12.23;78.14;97735.88;343528;28;1145;-85
2022/09/27 00:08:33;;;;;;;0.80;0.50;;;;;;;12.28;77.76;97727.78;342588;28;1791;-83
2022/09/27 00:08:45;;;;;;;0.90;0.60;;;;;;;12.27;78.29;97726.91;340900;28;1469;-83
2022/09/27 00:08:58;;;;;;;0.57;0.50;;;;;;;12.27;77.89;97734.72;342573;28;1260;-84
2022/09/27 00:09:11;;;;;;;0.65;0.50;;;;;;;12.19;77.93;97734.44;341549;28;1167;-83
2022/09/27 00:09:23;;;;;;;0.43;0.43;;;;;;;12.19;78.45;97734.44;342711;28;1239;-83
2022/09/27 00:09:35;;;;;;;0.40;0.40;;;;;;;12.17;78.40;97731.09;343445;28;1107;-83
2022/09/27 00:09:47;;;;;;;0.90;0.60;;;;;;;12.16;78.22;97732.06;342879;28;1728;-83
2022/09/27 00:09:59;;;;;;;1.10;0.60;;;;;;;12.16;78.08;97734.66;342908;28;1503;-83
2022/09/27 00:10:11;;;;;;;0.65;0.40;;;;;;;12.15;78.32;97732.97;342013;28;1772;-83
2022/09/27 00:10:24;;;;;;;0.70;0.50;;;;;;;12.13;78.34;97733.13;342944;28;1118;-84
2022/09/27 00:10:36;;;;;;;0.52;0.50;;;;;;;12.15;78.52;97728.63;343430;28;1903;-83
2022/09/27 00:10:48;;;;;;;0.45;0.45;;;;;;;12.18;78.26;97732.78;343838;28;1720;-82
2022/09/27 00:11:01;;;;;;;0.43;0.40;;;;;;;12.14;77.73;97726.94;343184;28;1537;-83
2022/09/27 00:11:25;;;;;;;0.60;0.40;;;;;;;12.18;77.65;97732.78;343204;28;1665;-83
2022/09/27 00:11:41;;;;;;;0.40;0.40;;;;;;;12.21;78.02;97727.34;340239;28;1692;-83
2022/09/27 00:11:53;;;;;;;1.60;0.40;;;;;;;12.16;78.14;97734.66;339938;28;1570;-82
2022/09/27 00:12:05;;;;;;;1.80;0.45;;;;;;;12.16;78.13;97735.50;342221;28;1731;-82
2022/09/27 00:12:17;;;;;;;0.60;0.50;;;;;;;12.15;78.13;97727.78;343673;28;1212;-83
2022/09/27 00:12:29;;;;;;;0.60;0.50;;;;;;;12.08;78.43;97731.75;342236;28;1692;-83
2022/09/27 00:12:41;;;;;;;0.50;0.50;;;;;;;12.07;78.47;97730.09;343061;28;1443;-83
2022/09/27 00:12:54;;;;;;;0.73;0.50;;;;;;;12.05;78.49;97731.97;342348;28;1031;-83
2022/09/27 00:13:06;;;;;;;0.55;0.50;;;;;;;12.04;78.81;97730.31;343844;28;1031;-83
2022/09/27 00:13:18;;;;;;;0.45;0.45;;;;;;;12.12;78.63;97733.22;345228;28;1290;-83
2022/09/27 00:13:30;;;;;;;0.73;0.50;;;;;;;12.12;78.49;97730.63;344116;28;1793;-83
2022/09/27 00:13:42;;;;;;;1.45;0.50;;;;;;;12.17;78.57;97725.91;345407;28;1652;-82
2022/09/27 00:13:56;;;;;;;1.30;0.57;;;;;;;12.15;77.98;97732.97;345240;28;1691;-83
2022/09/27 00:14:11;;;;;;;1.20;0.60;;;;;;;12.18;78.06;97732.78;345506;28;1698;-83
2022/09/27 00:14:23;;;;;;;1.30;0.50;;;;;;;12.24;78.19;97732.34;346227;28;1283;-83
2022/09/27 00:14:35;;;;;;;1.73;0.50;;;;;;;12.21;77.97;97732.56;344726;28;1719;-83
2022/09/27 00:14:47;;;;;;;1.20;0.50;;;;;;;12.18;78.07;97738.00;344135;28;1680;-83
2022/09/27 00:15:01;;;;;;;1.60;0.50;;;;;;;12.20;78.53;97730.91;344406;28;1299;-83
2022/09/27 00:15:13;;;;;;;1.30;0.50;;;;;;;12.17;78.59;97731.09;343597;28;1088;-83
2022/09/27 00:15:25;;;;;;;1.60;0.55;;;;;;;12.19;78.27;97731.84;342635;28;1518;-83
2022/09/27 00:15:37;;;;;;;0.80;0.43;;;;;;;12.23;78.29;97733.28;343612;28;1178;-83
2022/09/27 00:15:59;;;;;;;1.35;0.50;;;;;;;12.25;78.14;97731.41;342866;28;1597;-82
2022/09/27 00:16:11;;;;;;;2.30;0.50;;;;;;;12.31;78.31;97728.34;342928;28;1169;-83
2022/09/27 00:16:26;;;;;;;1.55;0.50;;;;;;;12.34;78.66;97727.34;343644;28;1270;-83
2022/09/27 00:16:40;;;;;;;1.10;0.50;;;;;;;12.32;78.20;97730.03;343264;28;1902;-83
2022/09/27 00:16:52;;;;;;;0.52;0.50;;;;;;;12.32;77.71;97730.03;345861;28;1598;-83
2022/09/27 00:17:04;;;;;;;0.70;0.50;;;;;;;12.34;77.84;97733.38;345123;28;1057;-83
2022/09/27 00:17:16;;;;;;;0.80;0.50;;;;;;;12.30;77.63;97726.72;342745;28;1200;-83
2022/09/27 00:17:28;;;;;;;1.33;0.60;;;;;;;12.31;78.00;97728.34;344972;28;1015;-84
2022/09/27 00:17:40;;;;;;;1.20;0.60;;;;;;;12.27;78.13;97726.91;344905;28;1154;-84
2022/09/27 00:17:52;;;;;;;0.70;0.50;;;;;;;12.31;78.17;97730.97;343849;28;1668;-83
2022/09/27 00:18:04;;;;;;;0.60;0.47;;;;;;;12.30;78.02;97726.72;343940;28;1648;-83
2022/09/27 00:18:16;;;;;;;5.90;0.45;;;;;;;12.29;78.13;97730.25;345150;28;1298;-83
2022/09/27 00:18:30;;;;;;;5.90;0.40;;;;;;;12.31;78.15;97730.13;345118;28;1195;-82
2022/09/27 00:18:42;;;;;;;5.75;0.40;;;;;;;12.29;78.66;97729.41;344880;28;1054;-84
2022/09/27 00:19:02;;;;;;;0.50;0.40;;;;;;;12.31;78.08;97727.53;342105;28;1450;-83
2022/09/27 00:19:17;;;;;;;0.43;0.40;;;;;;;12.26;78.29;97730.47;343329;28;1115;-83
2022/09/27 00:19:29;;;;;;;0.70;0.50;;;;;;;12.28;78.16;97728.59;343674;28;1727;-83
2022/09/27 00:19:41;;;;;;;0.75;0.50;;;;;;;12.33;77.74;97725.66;343919;28;1560;-83
2022/09/27 00:19:55;;;;;;;0.60;0.50;;;;;;;12.32;77.90;97729.22;346340;28;1223;-83
2022/09/27 00:20:08;;;;;;;1.15;0.50;;;;;;;12.31;78.10;97728.34;345269;28;1202;-84
2022/09/27 00:20:21;;;;;;;1.20;0.50;;;;;;;12.29;77.94;97725.03;343966;28;1207;-83
2022/09/27 00:20:33;;;;;;;1.30;0.50;;;;;;;12.27;77.84;97724.31;345038;28;1089;-83
2022/09/27 00:20:45;;;;;;;3.20;0.50;;;;;;;12.28;77.60;97726.00;343246;28;1128;-83
2022/09/27 00:21:05;;;;;;;3.20;0.50;;;;;;;12.32;77.79;97727.44;344026;28;2031;-84
2022/09/27 00:21:17;;;;;;;1.10;0.60;;;;;;;12.35;77.61;97718.56;343463;28;1238;-82
2022/09/27 00:21:30;;;;;;;1.40;0.65;;;;;;;12.35;77.38;97728.97;344932;28;1035;-84
2022/09/27 00:21:45;;;;;;;0.82;0.52;;;;;;;12.29;77.22;97725.03;344982;28;1067;-83
2022/09/27 00:21:57;;;;;;;0.50;0.50;;;;;;;12.35;77.35;97726.38;344512;28;1882;-84
2022/09/27 00:22:09;;;;;;;0.60;0.60;;;;;;;12.35;77.49;97728.97;344498;28;1775;-82
2022/09/27 00:22:22;;;;;;;1.02;0.57;;;;;;;12.38;77.54;97721.78;345045;28;1669;-83
2022/09/27 00:22:35;;;;;;;0.80;0.43;;;;;;;12.36;77.92;97725.44;344395;28;2145;-83
2022/09/27 00:22:48;;;;;;;0.47;0.40;;;;;;;12.34;78.10;97716.91;345637;28;1234;-83
2022/09/27 00:23:00;;;;;;;0.40;0.40;;;;;;;12.36;77.78;97726.28;346159;28;1597;-83
2022/09/27 00:23:12;;;;;;;0.40;0.40;;;;;;;12.38;77.97;97726.19;345747;28;1126;-83
2022/09/27 00:23:24;;;;;;;0.60;0.47;;;;;;;12.36;78.26;97728.88;346238;28;1191;-83
2022/09/27 00:23:37;;;;;;;0.77;0.50;;;;;;;12.34;78.48;97722.13;345517;28;935;-83
2022/09/27 00:23:49;;;;;;;1.10;0.50;;;;;;;12.38;78.39;97713.97;344859;28;1644;-85
2022/09/27 00:24:02;;;;;;;1.00;0.40;;;;;;;12.44;78.33;97717.09;345129;28;1385;-84
2022/09/27 00:24:17;;;;;;;0.90;0.40;;;;;;;12.52;77.73;97725.19;344554;28;1555;-83
2022/09/27 00:24:31;;;;;;;0.68;0.45;;;;;;;12.54;77.63;97724.13;343866;28;1155;-84
2022/09/27 00:24:43;;;;;;;1.80;0.50;;;;;;;12.50;77.72;97727.91;344222;28;1334;-83
2022/09/27 00:24:56;;;;;;;2.80;0.60;;;;;;;12.51;77.47;97718.31;344965;28;1593;-83
2022/09/27 00:25:08;;;;;;;1.80;0.50;;;;;;;12.46;76.98;97723.84;344780;28;1495;-83
2022/09/27 00:25:21;;;;;;;1.70;0.50;;;;;;;12.48;77.16;97728.97;344270;28;1250;-83
2022/09/27 00:25:33;;;;;;;0.80;0.50;;;;;;;12.44;77.22;97722.31;345146;28;1095;-86
2022/09/27 00:25:58;;;;;;;0.55;0.45;;;;;;;12.53;77.17;97721.63;344999;28;1396;-85
2022/09/27 00:26:12;;;;;;;0.90;0.40;;;;;;;12.54;76.97;97718.09;344322;28;1839;-82
2022/09/27 00:26:24;;;;;;;0.73;0.40;;;;;;;12.50;77.21;97716.66;344435;28;1180;-84
2022/09/27 00:26:36;;;;;;;0.47;0.40;;;;;;;12.50;77.02;97719.25;344460;28;1777;-82
2022/09/27 00:26:50;;;;;;;0.40;0.40;;;;;;;12.46;77.38;97715.22;345160;28;1326;-83
2022/09/27 00:27:02;;;;;;;0.50;0.45;;;;;;;12.38;77.62;97713.16;345079;28;1098;-82
2022/09/27 00:27:14;;;;;;;0.60;0.50;;;;;;;12.44;77.43;97714.50;345023;28;1079;-84
2022/09/27 00:27:26;;;;;;;1.02;0.50;;;;;;;12.42;77.62;97713.78;345821;28;1027;-84
2022/09/27 00:27:38;;;;;;;2.50;0.50;;;;;;;12.44;77.28;97722.31;347352;28;1019;-83
2022/09/27 00:27:50;;;;;;;2.65;0.50;;;;;;;12.29;77.88;97717.22;346139;28;1179;-84
2022/09/27 00:28:03;;;;;;;0.82;0.40;;;;;;;12.27;77.70;97715.66;346350;28;1217;-83
2022/09/27 00:28:15;;;;;;;0.75;0.40;;;;;;;12.33;77.40;97715.22;346218;28;1076;-83
2022/09/27 00:28:27;;;;;;;0.45;0.40;;;;;;;12.25;77.59;97718.38;343381;28;1025;-83
2022/09/27 00:28:40;;;;;;;0.40;0.40;;;;;;;12.24;77.68;97721.94;343917;28;1217;-84
2022/09/27 00:28:52;;;;;;;0.93;0.50;;;;;;;12.22;77.90;97715.19;342597;28;1646;-83
2022/09/27 00:29:04;;;;;;;1.00;0.50;;;;;;;12.14;78.12;97718.31;343864;28;1771;-83
2022/09/27 00:29:17;;;;;;;0.68;0.40;;;;;;;12.20;78.13;97710.06;341952;28;1675;-83
2022/09/27 00:29:29;;;;;;;0.65;0.40;;;;;;;12.24;77.98;97716.72;342660;28;1690;-84
2022/09/27 00:29:41;;;;;;;0.70;0.40;;;;;;;12.25;77.78;97707.97;342990;28;1672;-83
2022/09/27 00:29:54;;;;;;;0.50;0.40;;;;;;;12.22;77.57;97716.00;343049;28;1099;-84
2022/09/27 00:30:06;;;;;;;0.30;0.30;;;;;;;12.25;77.65;97707.97;343383;28;1707;-83
2022/09/27 00:30:18;;;;;;;0.40;0.40;;;;;;;12.21;77.79;97716.94;341767;28;1074;-83
2022/09/27 00:30:30;;;;;;;0.40;0.40;;;;;;;12.26;77.69;97714.84;342040;28;1180;-84
2022/09/27 00:30:42;;;;;;;0.40;0.40;;;;;;;12.23;77.66;97709.84;342172;28;2049;-84
2022/09/27 00:30:55;;;;;;;0.40;0.40;;;;;;;12.23;77.55;97717.66;341318;28;1684;-83
2022/09/27 00:31:18;;;;;;;0.30;0.30;;;;;;;12.22;77.78;97710.78;340391;29;1819;-83
2022/09/27 00:31:45;;;;;;;0.45;0.40;;;;;;;12.32;77.84;97719.63;343615;28;1416;-67
2022/09/27 00:31:57;;;;;;;0.40;0.40;;;;;;;12.33;77.53;97716.06;345339;28;1803;-66
2022/09/27 00:32:09;;;;;;;1.25;0.40;;;;;;;12.34;77.72;97722.13;345475;28;1994;-67
2022/09/27 00:32:21;;;;;;;1.45;0.40;;;;;;;12.36;77.40;97718.47;346690;28;1906;-67
2022/09/27 00:32:33;;;;;;;1.02;0.40;;;;;;;12.38;77.29;97708.75;347075;28;2150;-67
2022/09/27 00:32:45;;;;;;;0.50;0.45;;;;;;;12.35;76.87;97709.00;347041;28;1724;-69
2022/09/27 00:32:57;;;;;;;0.80;0.40;;;;;;;12.31;76.93;97717.94;347363;28;1645;-67
2022/09/27 00:33:09;;;;;;;0.73;0.40;;;;;;;12.28;77.26;97712.13;347174;28;1282;-67
2022/09/27 00:33:21;;;;;;;0.70;0.40;;;;;;;12.26;77.40;97714.84;347138;28;1218;-68
2022/09/27 00:33:33;;;;;;;0.52;0.32;;;;;;;12.29;77.25;97719.81;347594;28;1251;-67
2022/09/27 00:33:47;;;;;;;1.52;0.40;;;;;;;12.27;77.56;97716.50;347770;28;1106;-68
2022/09/27 00:34:01;;;;;;;1.80;0.43;;;;;;;12.19;78.05;97722.28;346046;28;1590;-68
2022/09/27 00:34:24;;;;;;;0.75;0.40;;;;;;;12.16;77.95;97719.03;345984;28;1034;-68
2022/09/27 00:34:36;;;;;;;1.25;0.47;;;;;;;12.17;77.71;97720.69;344617;28;1023;-67
2022/09/27 00:34:48;;;;;;;1.30;0.47;;;;;;;12.19;78.09;97711.00;343540;28;1737;-70
2022/09/27 00:35:00;;;;;;;0.77;0.40;;;;;;;12.15;77.89;97712.16;344760;28;1690;-67
2022/09/27 00:35:12;;;;;;;0.70;0.40;;;;;;;12.19;78.29;97724.88;344448;28;1268;-68
2022/09/27 00:35:24;;;;;;;1.30;0.40;;;;;;;12.23;78.23;97717.66;345676;28;1321;-68
2022/09/27 00:35:36;;;;;;;1.60;0.40;;;;;;;12.22;78.32;97712.56;344615;28;1045;-68
2022/09/27 00:35:48;;;;;;;1.55;0.40;;;;;;;12.26;78.27;97720.06;344730;28;1939;-69
2022/09/27 00:36:09;;;;;;;1.30;0.40;;;;;;;12.28;77.90;97706.94;344942;28;1566;-69
2022/09/27 00:36:22;;;;;;;1.00;0.50;;;;;;;12.32;77.58;97706.59;345115;28;1656;-67
2022/09/27 00:36:34;;;;;;;0.57;0.43;;;;;;;12.30;77.57;97705.88;346272;28;1759;-67
2022/09/27 00:36:48;;;;;;;0.40;0.40;;;;;;;12.28;77.30;97710.34;346275;28;1689;-68
2022/09/27 00:37:00;;;;;;;0.40;0.30;;;;;;;12.28;77.53;97712.13;345932;28;1657;-69
2022/09/27 00:37:12;;;;;;;0.43;0.40;;;;;;;12.31;77.85;97712.72;345487;28;1094;-67
2022/09/27 00:37:24;;;;;;;0.40;0.40;;;;;;;12.33;77.49;97710.03;347418;28;1132;-67
2022/09/27 00:37:36;;;;;;;0.60;0.40;;;;;;;12.31;77.62;97702.31;348397;28;756;-67
2022/09/27 00:37:48;;;;;;;0.75;0.40;;;;;;;12.25;77.72;97713.16;348674;28;1685;-69
2022/09/27 00:38:01;;;;;;;0.75;0.40;;;;;;;12.23;78.06;97715.03;346228;28;1615;-67
2022/09/27 00:38:14;;;;;;;0.60;0.40;;;;;;;12.16;77.87;97716.44;343804;28;1029;-68
2022/09/27 00:38:25;;;;;;;1.15;0.45;;;;;;;12.13;78.01;97720.09;346215;28;1521;-67
2022/09/27 00:38:39;;;;;;;1.75;0.50;;;;;;;12.10;78.36;97712.47;345821;28;1495;-67
2022/09/27 00:38:52;;;;;;;1.75;0.50;;;;;;;12.11;78.41;97721.13;344129;28;1731;-68
2022/09/27 00:39:04;;;;;;;0.60;0.47;;;;;;;12.11;78.15;97713.31;344975;28;1818;-67
2022/09/27 00:39:16;;;;;;;0.40;0.40;;;;;;;12.12;78.32;97712.38;344150;28;1825;-68
2022/09/27 00:39:28;;;;;;;0.40;0.40;;;;;;;12.09;78.84;97712.59;345102;28;1636;-68
2022/09/27 00:39:41;;;;;;;0.40;0.40;;;;;;;12.10;78.76;97709.06;343641;28;1031;-67
2022/09/27 00:39:53;;;;;;;0.40;0.40;;;;;;;12.11;78.92;97710.69;343458;28;1710;-68
2022/09/27 00:40:05;;;;;;;0.50;0.40;;;;;;;12.11;79.08;97706.34;345634;28;1710;-67
2022/09/27 00:40:22;;;;;;;1.67;0.40;;;;;;;12.13;79.27;97704.47;344651;28;1805;-67
2022/09/27 00:40:35;;;;;;;1.70;0.40;;;;;;;12.13;78.91;97714.03;346446;28;1603;-67
2022/09/27 00:40:47;;;;;;;0.60;0.40;;;;;;;12.10;78.85;97709.06;346587;28;1181;-67
2022/09/27 00:41:00;;;;;;;0.80;0.40;;;;;;;12.11;78.94;97715.91;344686;28;1309;-67
2022/09/27 00:41:23;;;;;;;0.65;0.40;;;;;;;12.22;79.07;97707.38;344661;28;747;-66
2022/09/27 00:41:36;;;;;;;0.55;0.40;;;;;;;12.26;78.77;97714.84;344652;28;1758;-68
2022/09/27 00:41:48;;;;;;;0.50;0.40;;;;;;;12.21;78.85;97722.13;344240;28;1650;-70
2022/09/27 00:42:00;;;;;;;0.57;0.40;;;;;;;12.14;78.65;97705.28;343424;28;1426;-68
2022/09/27 00:42:13;;;;;;;0.38;0.35;;;;;;;12.12;78.72;97712.38;343252;28;1095;-68
2022/09/27 00:42:25;;;;;;;0.50;0.40;;;;;;;12.08;78.78;97710.94;344792;28;1551;-67
2022/09/27 00:42:37;;;;;;;0.40;0.40;;;;;;;12.06;79.00;97718.84;343639;28;1861;-67
2022/09/27 00:42:49;;;;;;;0.75;0.40;;;;;;;12.02;78.91;97716.56;343662;28;1703;-67
2022/09/27 00:43:02;;;;;;;0.70;0.40;;;;;;;11.99;79.26;97713.25;345524;28;1730;-68
2022/09/27 00:43:20;;;;;;;0.45;0.35;;;;;;;12.03;79.55;97708.63;344981;28;1089;-67
2022/09/27 00:43:52;;;;;;;0.75;0.40;;;;;;;12.18;79.52;97707.56;345902;28;1722;-68
2022/09/27 00:44:24;;;;;;;1.15;0.40;;;;;;;12.20;79.11;97715.28;345888;28;1318;-67
2022/09/27 00:44:39;;;;;;;0.82;0.40;;;;;;;12.26;79.15;97712.25;346117;28;1684;-67
2022/09/27 00:45:05;;;;;;;1.10;0.40;;;;;;;12.29;78.60;97705.97;346069;28;1651;-67
2022/09/27 00:45:18;;;;;;;1.23;0.40;;;;;;;12.30;78.80;97705.88;345265;28;1475;-68
2022/09/27 00:45:49;;;;;;;0.93;0.40;;;;;;;12.29;79.10;97709.41;345140;23;2281;-87
2022/09/27 00:46:02;;;;;;;0.55;0.43;;;;;;;12.25;78.97;97707.97;344931;28;1547;-87
2022/09/27 00:46:27;;;;;;;1.30;0.43;;;;;;;12.24;78.99;97706.31;345309;28;1072;-87
2022/09/27 00:46:44;;;;;;;1.30;0.40;;;;;;;12.23;78.95;97704.63;345592;28;1088;-88
2022/09/27 00:47:13;;;;;;;0.60;0.32;;;;;;;12.20;78.99;97710.06;344534;28;1541;-86
2022/09/27 00:47:44;;;;;;;0.43;0.40;;;;;;;12.29;78.94;97709.41;345432;28;1195;-87
2022/09/27 00:48:04;;;;;;;0.80;0.40;;;;;;;12.31;79.12;97701.47;343197;28;1605;-87
2022/09/27 00:48:20;;;;;;;0.88;0.50;;;;;;;12.32;79.10;97708.38;343015;28;1295;-88
2022/09/27 00:48:35;;;;;;;0.63;0.50;;;;;;;12.35;78.86;97702.94;345008;28;1389;-87
2022/09/27 00:49:02;;;;;;;0.40;0.30;;;;;;;12.38;78.33;97698.34;346705;28;1540;-86
2022/09/27 00:49:36;;;;;;;0.75;0.40;;;;;;;12.37;78.63;97701.91;345787;28;1111;-87
2022/09/27 00:49:56;;;;;;;1.00;0.50;;;;;;;12.44;78.10;97701.47;347061;28;1032;-88
2022/09/27 00:50:36;;;;;;;0.60;0.30;;;;;;;12.47;77.80;97696.03;345856;28;1813;-90
2022/09/27 00:50:54;;;;;;;0.70;0.40;;;;;;;12.52;77.76;97704.34;344184;28;1129;-88
2022/09/27 00:51:08;;;;;;;0.90;0.40;;;;;;;12.46;77.45;97699.59;342747;28;1561;-88
2022/09/27 00:51:23;;;;;;;1.00;0.32;;;;;;;12.45;77.70;97703.13;344908;28;1271;-89
2022/09/27 00:51:39;;;;;;;0.40;0.30;;;;;;;12.47;78.25;97704.66;341057;28;1608;-88
2022/09/27 00:51:56;;;;;;;0.63;0.40;;;;;;;12.43;77.78;97705.00;342270;29;2041;-88
2022/09/27 00:52:37;;;;;;;1.00;0.40;;;;;;;12.36;78.25;97705.44;344337;28;912;-88
2022/09/27 00:53:15;;;;;;;0.50;0.40;;;;;;;12.24;78.48;97711.50;344834;28;1025;-86
2022/09/27 00:53:33;;;;;;;0.40;0.38;;;;;;;12.18;78.75;97707.56;344174;28;1474;-88
2022/09/27 00:53:56;;;;;;;0.43;0.30;;;;;;;12.24;78.57;97706.31;345257;28;1533;-89
2022/09/27 00:54:11;;;;;;;0.90;0.30;;;;;;;12.19;78.76;97708.38;345051;28;1638;-87
2022/09/27 00:54:27;;;;;;;0.90;0.40;;;;;;;12.14;78.57;97705.28;343920;28;1264;-87
2022/09/27 00:54:43;;;;;;;0.40;0.40;;;;;;;12.11;78.99;97710.69;345120;28;1068;-86
2022/09/27 00:55:08;;;;;;;1.45;0.47;;;;;;;12.15;79.12;97707.78;344656;28;1541;-87
2022/09/27 00:55:30;;;;;;;0.50;0.50;;;;;;;11.98;79.36;97711.56;343266;28;1133;-88
2022/09/27 00:55:48;;;;;;;0.43;0.43;;;;;;;11.95;79.96;97709.19;344330;28;1003;-87
2022/09/27 00:56:04;;;;;;;0.88;0.45;;;;;;;12.09;79.69;97707.38;345208;28;1270;-88
2022/09/27 00:56:22;;;;;;;1.40;0.52;;;;;;;12.03;79.67;97718.22;345068;28;1368;-88
2022/09/27 00:56:39;;;;;;;2.90;0.50;;;;;;;12.02;79.28;97706.16;344035;28;1139;-89
2022/09/27 00:56:53;;;;;;;1.08;0.40;;;;;;;12.01;79.51;97707.91;344323;28;1179;-88
2022/09/27 00:57:05;;;;;;;0.50;0.32;;;;;;;12.06;79.29;97707.59;345556;28;1517;-89
2022/09/27 00:57:19;;;;;;;0.63;0.40;;;;;;;12.07;79.56;97711.84;343845;28;1522;-88
2022/09/27 00:57:32;;;;;;;0.80;0.40;;;;;;;12.07;79.53;97707.47;346053;28;1188;-88
2022/09/27 00:57:46;;;;;;;0.50;0.40;;;;;;;12.11;79.13;97710.69;345516;28;1002;-86
2022/09/27 00:58:03;;;;;;;1.70;0.50;;;;;;;12.17;79.36;97707.66;344510;28;1546;-86
2022/09/27 00:58:24;;;;;;;2.10;0.40;;;;;;;12.10;79.42;97709.88;344179;28;968;-88
2022/09/27 00:58:45;;;;;;;1.05;0.32;;;;;;;12.19;79.32;97705.78;344116;28;1013;-88
2022/09/27 00:59:05;;;;;;;1.20;0.43;;;;;;;12.22;79.36;97704.75;342587;28;1589;-89
2022/09/27 00:59:28;;;;;;;0.47;0.40;;;;;;;12.23;78.96;97712.44;344298;28;1586;-88
2022/09/27 00:59:48;;;;;;;0.52;0.40;;;;;;;12.18;79.23;97702.34;345683;28;1033;-88
2022/09/27 01:00:06;;;;;;;0.98;0.50;;;;;;;12.16;79.50;97713.84;344197;28;1077;-88
2022/09/27 01:00:18;;;;;;;0.50;0.30;;;;;;;12.13;79.09;97701.88;344105;28;1042;-87
2022/09/27 01:00:30;;;;;;;0.32;0.30;;;;;;;12.11;79.54;97716.75;345737;28;1083;-87
2022/09/27 01:00:46;;;;;;;0.40;0.40;;;;;;;12.04;79.42;97710.31;345387;28;1048;-88
2022/09/27 01:01:04;;;;;;;0.43;0.40;;;;;;;12.14;79.58;97705.28;345603;28;1019;-88
2022/09/27 01:01:18;;;;;;;0.63;0.47;;;;;;;12.13;79.31;97701.88;340935;29;1098;-89
2022/09/27 01:01:31;;;;;;;0.50;0.50;;;;;;;12.10;79.56;97706.44;340228;29;1210;-89
2022/09/27 01:01:53;;;;;;;0.77;0.47;;;;;;;12.15;79.33;97718.22;340296;29;1017;-89
2022/09/27 01:02:09;;;;;;;1.45;0.50;;;;;;;12.19;79.10;97693.63;340297;29;1124;-89
2022/09/27 01:02:26;;;;;;;1.50;0.50;;;;;;;12.23;78.90;97694.22;337810;29;986;-88
2022/09/27 01:02:42;;;;;;;1.10;0.50;;;;;;;12.24;79.23;97695.06;340710;29;1871;-88
2022/09/27 01:02:56;;;;;;;0.63;0.47;;;;;;;12.19;79.26;97704.03;340869;29;1728;-87
2022/09/27 01:03:35;;;;;;;0.90;0.38;;;;;;;12.19;79.46;97703.19;340139;28;1068;-89
2022/09/27 01:04:07;;;;;;;0.73;0.40;;;;;;;12.14;79.40;97700.09;342643;28;985;-88
2022/09/27 01:04:26;;;;;;;0.40;0.40;;;;;;;12.11;79.54;97705.50;342785;28;1236;-87
2022/09/27 01:04:42;;;;;;;1.00;0.70;;;;;;;12.08;79.75;97703.13;344014;28;1072;-88
2022/09/27 01:04:56;;;;;;;0.85;0.45;;;;;;;12.09;79.91;97696.94;343393;28;1640;-87
2022/09/27 01:05:11;;;;;;;0.80;0.40;;;;;;;12.13;80.10;97708.81;342780;28;1664;-88
2022/09/27 01:05:28;;;;;;;0.85;0.40;;;;;;;12.05;80.38;97698.09;345355;28;1179;-87
2022/09/27 01:05:41;;;;;;;0.80;0.40;;;;;;;12.07;79.89;97709.25;344258;28;1146;-88
2022/09/27 01:05:54;;;;;;;0.47;0.40;;;;;;;12.06;80.55;97705.00;343337;28;1688;-87
2022/09/27 01:06:07;;;;;;;0.50;0.40;;;;;;;12.10;80.16;97698.63;341096;29;1295;-86
2022/09/27 01:06:20;;;;;;;0.47;0.40;;;;;;;12.17;80.36;97699.84;342156;28;1866;-87
2022/09/27 01:06:36;;;;;;;0.55;0.45;;;;;;;12.18;80.40;97696.31;342419;29;1083;-89
2022/09/27 01:06:48;;;;;;;0.70;0.40;;;;;;;12.15;80.24;97702.59;343966;28;917;-87
2022/09/27 01:07:00;;;;;;;0.70;0.40;;;;;;;12.13;80.27;97698.41;343339;28;1879;-88
2022/09/27 01:07:13;;;;;;;0.40;0.40;;;;;;;12.07;80.38;97699.66;342630;28;1344;-87
2022/09/27 01:07:27;;;;;;;0.55;0.45;;;;;;;12.12;80.33;97697.56;343973;28;1239;-89
2022/09/27 01:07:40;;;;;;;0.52;0.50;;;;;;;12.12;80.41;97696.75;341840;28;1540;-87
2022/09/27 01:07:55;;;;;;;0.40;0.40;;;;;;;12.06;80.54;97702.41;341121;29;1666;-88
2022/09/27 01:08:08;;;;;;;0.38;0.38;;;;;;;12.07;80.63;97698.84;342536;28;1223;-89
2022/09/27 01:08:21;;;;;;;0.38;0.38;;;;;;;12.06;80.81;97702.41;343788;28;1224;-88
2022/09/27 01:08:34;;;;;;;0.60;0.50;;;;;;;12.08;80.83;97692.69;342576;28;849;-89
2022/09/27 01:08:46;;;;;;;0.90;0.50;;;;;;;12.06;80.74;97702.41;344012;28;920;-87
2022/09/27 01:08:58;;;;;;;0.70;0.50;;;;;;;12.14;80.61;97694.88;340256;28;1559;-88
2022/09/27 01:09:13;;;;;;;0.95;0.50;;;;;;;12.12;80.31;97696.75;341100;29;957;-88
2022/09/27 01:09:26;;;;;;;1.10;0.43;;;;;;;12.21;80.30;97690.88;341055;29;1138;-88
2022/09/27 01:09:39;;;;;;;0.77;0.40;;;;;;;12.21;80.32;97690.88;342208;28;923;-88
2022/09/27 01:09:51;;;;;;;0.40;0.40;;;;;;;12.22;80.43;97692.56;339381;28;1651;-87
2022/09/27 01:10:05;;;;;;;0.40;0.40;;;;;;;12.27;80.16;97690.44;339478;29;1633;-88
2022/09/27 01:10:18;;;;;;;0.43;0.40;;;;;;;12.32;80.41;97696.19;338936;29;1117;-88
2022/09/27 01:10:45;;;;;;;1.80;0.40;;;;;;;12.26;80.07;97701.81;339560;28;1649;-88
2022/09/27 01:11:36;;;;;;;1.80;0.40;;;;;;;12.33;79.89;97695.22;337780;29;1702;-89
2022/09/27 01:12:10;;;;;;;1.20;0.32;;;;;;;12.15;80.24;97697.38;337637;29;1075;-87
2022/09/27 01:12:35;;;;;;;0.40;0.40;;;;;;;12.19;80.62;97697.97;341014;28;1212;-88